sensor_id;sensor_type;location;lat;lon;timestamp;P1;durP1;ratioP1;P2;durP2;ratioP2
73575;SDS011;61859;49.204;8.140;2022-09-09T00:00:24;1.43;;;0.93;;
73575;SDS011;61859;49.204;8.140;2022-09-09T00:08:21;2.83;;;1.20;;
73575;SDS011;61859;49.204;8.140;2022-09-09T00:10:57;3.57;;;0.97;;
73575;SDS011;61859;49.204;8.140;2022-09-09T00:13:37;1.63;;;1.00;;
73575;SDS011;61859;49.204;8.140;2022-09-09T00:16:12;1.50;;;0.93;;
73575;SDS011;61859;49.204;8.140;2022-09-09T00:18:50;3.33;;;1.00;;
73575;SDS011;61859;49.204;8.140;2022-09-09T00:21:30;3.40;;;1.33;;
73575;SDS011;61859;49.204;8.140;2022-09-09T00:24:00;1.47;;;1.13;;
73575;SDS011;61859;49.204;8.140;2022-09-09T00:26:40;8.67;;;1.97;;
73575;SDS011;61859;49.204;8.140;2022-09-09T00:29:15;2.73;;;1.07;;
73575;SDS011;61859;49.204;8.140;2022-09-09T00:31:55;2.27;;;1.13;;
73575;SDS011;61859;49.204;8.140;2022-09-09T00:34:25;2.20;;;1.10;;
73575;SDS011;61859;49.204;8.140;2022-09-09T00:36:53;3.10;;;1.20;;
73575;SDS011;61859;49.204;8.140;2022-09-09T00:45:18;2.87;;;1.40;;
73575;SDS011;61859;49.204;8.140;2022-09-09T00:47:53;3.27;;;1.10;;
73575;SDS011;61859;49.204;8.140;2022-09-09T00:50:26;5.20;;;1.00;;
73575;SDS011;61859;49.204;8.140;2022-09-09T00:53:11;2.43;;;0.97;;
73575;SDS011;61859;49.204;8.140;2022-09-09T00:58:40;2.50;;;1.27;;
73575;SDS011;61859;49.204;8.140;2022-09-09T01:01:10;2.80;;;1.10;;
73575;SDS011;61859;49.204;8.140;2022-09-09T01:03:39;3.10;;;1.13;;
73575;SDS011;61859;49.204;8.140;2022-09-09T01:06:20;1.07;;;0.80;;
73575;SDS011;61859;49.204;8.140;2022-09-09T01:11:36;1.53;;;1.10;;
73575;SDS011;61859;49.204;8.140;2022-09-09T01:16:56;2.60;;;1.30;;
73575;SDS011;61859;49.204;8.140;2022-09-09T01:25:20;3.20;;;1.20;;
73575;SDS011;61859;49.204;8.140;2022-09-09T01:28:07;1.90;;;1.30;;
73575;SDS011;61859;49.204;8.140;2022-09-09T01:30:38;6.63;;;1.37;;
73575;SDS011;61859;49.204;8.140;2022-09-09T01:33:07;1.70;;;1.00;;
73575;SDS011;61859;49.204;8.140;2022-09-09T01:38:19;3.23;;;1.63;;
73575;SDS011;61859;49.204;8.140;2022-09-09T01:40:45;3.40;;;1.20;;
73575;SDS011;61859;49.204;8.140;2022-09-09T01:43:11;4.20;;;1.20;;
73575;SDS011;61859;49.204;8.140;2022-09-09T01:45:38;3.47;;;1.20;;
73575;SDS011;61859;49.204;8.140;2022-09-09T01:48:05;4.17;;;1.20;;
73575;SDS011;61859;49.204;8.140;2022-09-09T01:50:31;4.10;;;1.27;;
73575;SDS011;61859;49.204;8.140;2022-09-09T01:52:58;2.80;;;1.53;;
73575;SDS011;61859;49.204;8.140;2022-09-09T01:55:31;3.27;;;1.23;;
73575;SDS011;61859;49.204;8.140;2022-09-09T02:00:42;4.93;;;1.30;;
73575;SDS011;61859;49.204;8.140;2022-09-09T02:03:25;3.37;;;1.30;;
73575;SDS011;61859;49.204;8.140;2022-09-09T02:08:40;8.57;;;1.50;;
73575;SDS011;61859;49.204;8.140;2022-09-09T02:11:11;2.40;;;1.10;;
73575;SDS011;61859;49.204;8.140;2022-09-09T02:13:39;5.87;;;1.47;;
73575;SDS011;61859;49.204;8.140;2022-09-09T02:16:08;4.13;;;1.37;;
73575;SDS011;61859;49.204;8.140;2022-09-09T02:18:57;3.10;;;1.60;;
73575;SDS011;61859;49.204;8.140;2022-09-09T02:21:28;3.93;;;1.30;;
73575;SDS011;61859;49.204;8.140;2022-09-09T02:23:56;4.20;;;1.30;;
73575;SDS011;61859;49.204;8.140;2022-09-09T02:26:29;1.63;;;1.53;;
73575;SDS011;61859;49.204;8.140;2022-09-09T02:28:56;4.73;;;1.20;;
73575;SDS011;61859;49.204;8.140;2022-09-09T02:31:24;4.00;;;1.17;;
73575;SDS011;61859;49.204;8.140;2022-09-09T02:33:51;5.53;;;1.40;;
73575;SDS011;61859;49.204;8.140;2022-09-09T02:36:23;3.20;;;1.40;;
73575;SDS011;61859;49.204;8.140;2022-09-09T02:38:52;2.73;;;1.20;;
73575;SDS011;61859;49.204;8.140;2022-09-09T02:41:31;2.40;;;1.10;;
73575;SDS011;61859;49.204;8.140;2022-09-09T02:43:58;3.23;;;1.20;;
73575;SDS011;61859;49.204;8.140;2022-09-09T02:46:27;2.67;;;1.50;;
73575;SDS011;61859;49.204;8.140;2022-09-09T02:49:28;6.53;;;1.30;;
73575;SDS011;61859;49.204;8.140;2022-09-09T02:52:07;3.53;;;1.20;;
73575;SDS011;61859;49.204;8.140;2022-09-09T02:54:34;5.57;;;1.53;;
73575;SDS011;61859;49.204;8.140;2022-09-09T02:59:43;3.93;;;1.10;;
73575;SDS011;61859;49.204;8.140;2022-09-09T03:02:09;5.30;;;1.13;;
73575;SDS011;61859;49.204;8.140;2022-09-09T03:04:36;3.17;;;1.67;;
73575;SDS011;61859;49.204;8.140;2022-09-09T03:07:02;3.37;;;1.40;;
73575;SDS011;61859;49.204;8.140;2022-09-09T03:09:28;2.97;;;1.00;;
73575;SDS011;61859;49.204;8.140;2022-09-09T03:11:54;3.67;;;1.00;;
73575;SDS011;61859;49.204;8.140;2022-09-09T03:14:20;4.47;;;1.27;;
73575;SDS011;61859;49.204;8.140;2022-09-09T03:16:49;2.77;;;0.97;;
73575;SDS011;61859;49.204;8.140;2022-09-09T03:19:15;3.80;;;0.80;;
73575;SDS011;61859;49.204;8.140;2022-09-09T03:21:41;2.67;;;0.90;;
73575;SDS011;61859;49.204;8.140;2022-09-09T03:24:06;3.03;;;1.03;;
73575;SDS011;61859;49.204;8.140;2022-09-09T03:26:32;3.40;;;0.90;;
73575;SDS011;61859;49.204;8.140;2022-09-09T03:28:58;1.07;;;0.50;;
73575;SDS011;61859;49.204;8.140;2022-09-09T03:31:25;3.77;;;1.03;;
73575;SDS011;61859;49.204;8.140;2022-09-09T03:33:51;8.50;;;1.83;;
73575;SDS011;61859;49.204;8.140;2022-09-09T03:36:16;2.23;;;1.00;;
73575;SDS011;61859;49.204;8.140;2022-09-09T03:38:42;2.53;;;0.50;;
73575;SDS011;61859;49.204;8.140;2022-09-09T03:41:08;1.10;;;0.50;;
73575;SDS011;61859;49.204;8.140;2022-09-09T03:43:34;0.20;;;0.10;;
73575;SDS011;61859;49.204;8.140;2022-09-09T03:46:00;0.40;;;0.40;;
73575;SDS011;61859;49.204;8.140;2022-09-09T03:48:25;0.70;;;0.43;;
73575;SDS011;61859;49.204;8.140;2022-09-09T03:50:53;0.20;;;0.20;;
73575;SDS011;61859;49.204;8.140;2022-09-09T03:53:21;3.17;;;0.50;;
73575;SDS011;61859;49.204;8.140;2022-09-09T03:55:52;0.10;;;0.10;;
73575;SDS011;61859;49.204;8.140;2022-09-09T03:58:24;0.83;;;0.40;;
73575;SDS011;61859;49.204;8.140;2022-09-09T04:00:58;2.33;;;0.27;;
73575;SDS011;61859;49.204;8.140;2022-09-09T04:03:24;1.30;;;0.20;;
73575;SDS011;61859;49.204;8.140;2022-09-09T04:05:51;0.10;;;0.10;;
73575;SDS011;61859;49.204;8.140;2022-09-09T04:08:17;0.00;;;0.00;;
73575;SDS011;61859;49.204;8.140;2022-09-09T04:10:44;0.00;;;0.00;;
73575;SDS011;61859;49.204;8.140;2022-09-09T04:13:11;0.10;;;0.10;;
73575;SDS011;61859;49.204;8.140;2022-09-09T04:15:40;0.30;;;0.20;;
73575;SDS011;61859;49.204;8.140;2022-09-09T04:18:06;0.00;;;0.00;;
73575;SDS011;61859;49.204;8.140;2022-09-09T04:20:31;0.00;;;0.00;;
73575;SDS011;61859;49.204;8.140;2022-09-09T04:22:57;0.37;;;0.37;;
73575;SDS011;61859;49.204;8.140;2022-09-09T04:25:23;1.03;;;0.30;;
73575;SDS011;61859;49.204;8.140;2022-09-09T04:27:53;1.70;;;0.10;;
73575;SDS011;61859;49.204;8.140;2022-09-09T04:30:19;0.00;;;0.00;;
73575;SDS011;61859;49.204;8.140;2022-09-09T04:32:45;0.00;;;0.00;;
73575;SDS011;61859;49.204;8.140;2022-09-09T04:35:11;0.30;;;0.10;;
73575;SDS011;61859;49.204;8.140;2022-09-09T04:37:37;0.10;;;0.10;;
73575;SDS011;61859;49.204;8.140;2022-09-09T04:40:03;0.10;;;0.10;;
73575;SDS011;61859;49.204;8.140;2022-09-09T04:42:28;0.80;;;0.30;;
73575;SDS011;61859;49.204;8.140;2022-09-09T04:44:54;0.90;;;0.30;;
73575;SDS011;61859;49.204;8.140;2022-09-09T04:47:19;0.00;;;0.00;;
73575;SDS011;61859;49.204;8.140;2022-09-09T04:49:45;0.20;;;0.10;;
73575;SDS011;61859;49.204;8.140;2022-09-09T04:52:11;0.10;;;0.10;;
73575;SDS011;61859;49.204;8.140;2022-09-09T04:54:36;0.10;;;0.10;;
73575;SDS011;61859;49.204;8.140;2022-09-09T04:57:02;0.03;;;0.03;;
73575;SDS011;61859;49.204;8.140;2022-09-09T04:59:28;0.10;;;0.10;;
73575;SDS011;61859;49.204;8.140;2022-09-09T05:01:53;0.07;;;0.07;;
73575;SDS011;61859;49.204;8.140;2022-09-09T05:04:20;0.20;;;0.20;;
73575;SDS011;61859;49.204;8.140;2022-09-09T05:06:46;0.00;;;0.00;;
73575;SDS011;61859;49.204;8.140;2022-09-09T05:09:11;0.20;;;0.17;;
73575;SDS011;61859;49.204;8.140;2022-09-09T05:11:37;0.20;;;0.20;;
73575;SDS011;61859;49.204;8.140;2022-09-09T05:14:03;1.43;;;0.60;;
73575;SDS011;61859;49.204;8.140;2022-09-09T05:16:29;0.10;;;0.10;;
73575;SDS011;61859;49.204;8.140;2022-09-09T05:18:55;0.10;;;0.10;;
73575;SDS011;61859;49.204;8.140;2022-09-09T05:21:21;0.47;;;0.23;;
73575;SDS011;61859;49.204;8.140;2022-09-09T05:23:48;0.00;;;0.00;;
73575;SDS011;61859;49.204;8.140;2022-09-09T05:26:16;0.30;;;0.30;;
73575;SDS011;61859;49.204;8.140;2022-09-09T05:28:43;0.00;;;0.00;;
73575;SDS011;61859;49.204;8.140;2022-09-09T05:31:10;0.10;;;0.10;;
73575;SDS011;61859;49.204;8.140;2022-09-09T05:33:37;0.43;;;0.20;;
73575;SDS011;61859;49.204;8.140;2022-09-09T05:36:09;1.43;;;0.10;;
73575;SDS011;61859;49.204;8.140;2022-09-09T05:38:38;0.10;;;0.10;;
73575;SDS011;61859;49.204;8.140;2022-09-09T05:41:04;0.20;;;0.10;;
73575;SDS011;61859;49.204;8.140;2022-09-09T05:43:30;0.20;;;0.20;;
73575;SDS011;61859;49.204;8.140;2022-09-09T05:46:08;0.43;;;0.17;;
73575;SDS011;61859;49.204;8.140;2022-09-09T05:48:36;0.00;;;0.00;;
73575;SDS011;61859;49.204;8.140;2022-09-09T05:51:03;0.00;;;0.00;;
73575;SDS011;61859;49.204;8.140;2022-09-09T05:53:29;0.00;;;0.00;;
73575;SDS011;61859;49.204;8.140;2022-09-09T05:56:03;0.00;;;0.00;;
73575;SDS011;61859;49.204;8.140;2022-09-09T05:58:31;0.20;;;0.20;;
73575;SDS011;61859;49.204;8.140;2022-09-09T06:01:01;0.20;;;0.20;;
73575;SDS011;61859;49.204;8.140;2022-09-09T06:03:32;0.90;;;0.20;;
73575;SDS011;61859;49.204;8.140;2022-09-09T06:06:05;2.00;;;0.33;;
73575;SDS011;61859;49.204;8.140;2022-09-09T06:08:37;0.30;;;0.20;;
73575;SDS011;61859;49.204;8.140;2022-09-09T06:11:10;0.20;;;0.20;;
73575;SDS011;61859;49.204;8.140;2022-09-09T06:13:38;1.50;;;0.13;;
73575;SDS011;61859;49.204;8.140;2022-09-09T06:16:04;0.10;;;0.10;;
73575;SDS011;61859;49.204;8.140;2022-09-09T06:18:40;0.00;;;0.00;;
73575;SDS011;61859;49.204;8.140;2022-09-09T06:21:08;0.10;;;0.10;;
73575;SDS011;61859;49.204;8.140;2022-09-09T06:23:41;0.10;;;0.10;;
73575;SDS011;61859;49.204;8.140;2022-09-09T06:26:09;0.00;;;0.00;;
73575;SDS011;61859;49.204;8.140;2022-09-09T06:28:37;0.47;;;0.27;;
73575;SDS011;61859;49.204;8.140;2022-09-09T06:31:07;0.10;;;0.10;;
73575;SDS011;61859;49.204;8.140;2022-09-09T06:33:34;0.20;;;0.20;;
73575;SDS011;61859;49.204;8.140;2022-09-09T06:36:04;0.00;;;0.00;;
73575;SDS011;61859;49.204;8.140;2022-09-09T06:38:30;0.10;;;0.10;;
73575;SDS011;61859;49.204;8.140;2022-09-09T06:40:56;0.00;;;0.00;;
73575;SDS011;61859;49.204;8.140;2022-09-09T06:43:23;0.00;;;0.00;;
73575;SDS011;61859;49.204;8.140;2022-09-09T06:45:56;0.10;;;0.10;;
73575;SDS011;61859;49.204;8.140;2022-09-09T06:48:27;0.10;;;0.10;;
73575;SDS011;61859;49.204;8.140;2022-09-09T06:51:06;0.03;;;0.03;;
73575;SDS011;61859;49.204;8.140;2022-09-09T06:53:34;0.20;;;0.17;;
73575;SDS011;61859;49.204;8.140;2022-09-09T06:58:41;0.07;;;0.07;;
73575;SDS011;61859;49.204;8.140;2022-09-09T07:01:09;0.17;;;0.17;;
73575;SDS011;61859;49.204;8.140;2022-09-09T07:03:37;0.00;;;0.00;;
73575;SDS011;61859;49.204;8.140;2022-09-09T07:06:03;0.10;;;0.10;;
73575;SDS011;61859;49.204;8.140;2022-09-09T07:08:29;0.00;;;0.00;;
73575;SDS011;61859;49.204;8.140;2022-09-09T07:11:01;0.30;;;0.10;;
73575;SDS011;61859;49.204;8.140;2022-09-09T07:13:29;0.00;;;0.00;;
73575;SDS011;61859;49.204;8.140;2022-09-09T07:15:56;0.20;;;0.20;;
73575;SDS011;61859;49.204;8.140;2022-09-09T07:18:35;0.17;;;0.10;;
73575;SDS011;61859;49.204;8.140;2022-09-09T07:21:02;0.10;;;0.10;;
73575;SDS011;61859;49.204;8.140;2022-09-09T07:23:28;0.07;;;0.00;;
73575;SDS011;61859;49.204;8.140;2022-09-09T07:25:55;0.20;;;0.10;;
73575;SDS011;61859;49.204;8.140;2022-09-09T07:28:22;0.17;;;0.17;;
73575;SDS011;61859;49.204;8.140;2022-09-09T07:30:55;0.03;;;0.03;;
73575;SDS011;61859;49.204;8.140;2022-09-09T07:33:22;0.10;;;0.10;;
73575;SDS011;61859;49.204;8.140;2022-09-09T07:35:49;0.50;;;0.30;;
73575;SDS011;61859;49.204;8.140;2022-09-09T07:38:14;0.10;;;0.10;;
73575;SDS011;61859;49.204;8.140;2022-09-09T07:40:40;0.00;;;0.00;;
73575;SDS011;61859;49.204;8.140;2022-09-09T07:43:05;0.23;;;0.10;;
73575;SDS011;61859;49.204;8.140;2022-09-09T07:45:32;0.07;;;0.07;;
73575;SDS011;61859;49.204;8.140;2022-09-09T07:47:59;0.30;;;0.07;;
73575;SDS011;61859;49.204;8.140;2022-09-09T07:50:24;0.67;;;0.10;;
73575;SDS011;61859;49.204;8.140;2022-09-09T07:52:51;0.07;;;0.07;;
73575;SDS011;61859;49.204;8.140;2022-09-09T07:55:18;0.13;;;0.13;;
73575;SDS011;61859;49.204;8.140;2022-09-09T08:01:12;0.10;;;0.10;;
73575;SDS011;61859;49.204;8.140;2022-09-09T08:04:03;0.10;;;0.10;;
73575;SDS011;61859;49.204;8.140;2022-09-09T08:06:40;0.80;;;0.20;;
73575;SDS011;61859;49.204;8.140;2022-09-09T08:09:07;0.10;;;0.10;;
73575;SDS011;61859;49.204;8.140;2022-09-09T08:11:34;0.50;;;0.20;;
73575;SDS011;61859;49.204;8.140;2022-09-09T08:14:01;0.00;;;0.00;;
73575;SDS011;61859;49.204;8.140;2022-09-09T08:16:28;0.00;;;0.00;;
73575;SDS011;61859;49.204;8.140;2022-09-09T08:18:55;0.10;;;0.10;;
73575;SDS011;61859;49.204;8.140;2022-09-09T08:21:27;0.77;;;0.10;;
73575;SDS011;61859;49.204;8.140;2022-09-09T08:23:54;0.20;;;0.20;;
73575;SDS011;61859;49.204;8.140;2022-09-09T08:26:21;1.40;;;0.10;;
73575;SDS011;61859;49.204;8.140;2022-09-09T08:28:49;0.10;;;0.10;;
73575;SDS011;61859;49.204;8.140;2022-09-09T08:31:21;0.47;;;0.40;;
73575;SDS011;61859;49.204;8.140;2022-09-09T08:33:54;0.97;;;0.37;;
73575;SDS011;61859;49.204;8.140;2022-09-09T08:36:21;0.10;;;0.10;;
73575;SDS011;61859;49.204;8.140;2022-09-09T08:38:52;0.00;;;0.00;;
73575;SDS011;61859;49.204;8.140;2022-09-09T08:43:50;0.30;;;0.30;;
73575;SDS011;61859;49.204;8.140;2022-09-09T08:49:03;0.63;;;0.60;;
73575;SDS011;61859;49.204;8.140;2022-09-09T08:51:40;0.30;;;0.30;;
73575;SDS011;61859;49.204;8.140;2022-09-09T08:54:07;0.20;;;0.20;;
73575;SDS011;61859;49.204;8.140;2022-09-09T08:56:35;0.00;;;0.00;;
73575;SDS011;61859;49.204;8.140;2022-09-09T08:59:01;0.20;;;0.20;;
73575;SDS011;61859;49.204;8.140;2022-09-09T09:01:45;0.00;;;0.00;;
73575;SDS011;61859;49.204;8.140;2022-09-09T09:04:44;0.53;;;0.20;;
73575;SDS011;61859;49.204;8.140;2022-09-09T09:07:20;0.10;;;0.10;;
73575;SDS011;61859;49.204;8.140;2022-09-09T09:10:10;0.10;;;0.10;;
73575;SDS011;61859;49.204;8.140;2022-09-09T09:12:51;0.10;;;0.10;;
73575;SDS011;61859;49.204;8.140;2022-09-09T09:15:23;0.27;;;0.07;;
73575;SDS011;61859;49.204;8.140;2022-09-09T09:17:50;0.10;;;0.10;;
73575;SDS011;61859;49.204;8.140;2022-09-09T09:20:16;0.10;;;0.10;;
73575;SDS011;61859;49.204;8.140;2022-09-09T09:22:48;0.60;;;0.20;;
73575;SDS011;61859;49.204;8.140;2022-09-09T09:25:17;0.50;;;0.23;;
73575;SDS011;61859;49.204;8.140;2022-09-09T09:27:58;0.10;;;0.10;;
73575;SDS011;61859;49.204;8.140;2022-09-09T09:30:28;0.10;;;0.10;;
73575;SDS011;61859;49.204;8.140;2022-09-09T09:35:36;0.20;;;0.20;;
73575;SDS011;61859;49.204;8.140;2022-09-09T09:38:08;0.43;;;0.10;;
73575;SDS011;61859;49.204;8.140;2022-09-09T09:40:51;0.20;;;0.20;;
73575;SDS011;61859;49.204;8.140;2022-09-09T09:43:35;0.00;;;0.00;;
73575;SDS011;61859;49.204;8.140;2022-09-09T09:46:05;0.13;;;0.07;;
73575;SDS011;61859;49.204;8.140;2022-09-09T09:48:43;0.43;;;0.20;;
73575;SDS011;61859;49.204;8.140;2022-09-09T09:51:12;0.20;;;0.10;;
73575;SDS011;61859;49.204;8.140;2022-09-09T09:53:41;0.00;;;0.00;;
73575;SDS011;61859;49.204;8.140;2022-09-09T09:56:09;0.10;;;0.10;;
73575;SDS011;61859;49.204;8.140;2022-09-09T10:01:18;0.57;;;0.20;;
73575;SDS011;61859;49.204;8.140;2022-09-09T10:03:53;0.17;;;0.17;;
73575;SDS011;61859;49.204;8.140;2022-09-09T10:06:36;0.20;;;0.17;;
73575;SDS011;61859;49.204;8.140;2022-09-09T10:09:17;0.43;;;0.00;;
73575;SDS011;61859;49.204;8.140;2022-09-09T10:23:33;0.10;;;0.10;;
73575;SDS011;61859;49.204;8.140;2022-09-09T10:26:13;0.47;;;0.20;;
73575;SDS011;61859;49.204;8.140;2022-09-09T10:37:21;0.10;;;0.10;;
73575;SDS011;61859;49.204;8.140;2022-09-09T10:42:47;0.10;;;0.10;;
73575;SDS011;61859;49.204;8.140;2022-09-09T10:45:20;0.20;;;0.20;;
73575;SDS011;61859;49.204;8.140;2022-09-09T10:55:56;0.23;;;0.23;;
73575;SDS011;61859;49.204;8.140;2022-09-09T10:58:35;0.13;;;0.13;;
73575;SDS011;61859;49.204;8.140;2022-09-09T11:01:25;0.20;;;0.20;;
73575;SDS011;61859;49.204;8.140;2022-09-09T11:04:01;0.97;;;0.30;;
73575;SDS011;61859;49.204;8.140;2022-09-09T11:06:37;0.20;;;0.20;;
73575;SDS011;61859;49.204;8.140;2022-09-09T11:09:08;0.17;;;0.10;;
73575;SDS011;61859;49.204;8.140;2022-09-09T11:11:48;0.00;;;0.00;;
73575;SDS011;61859;49.204;8.140;2022-09-09T11:17:18;0.10;;;0.10;;
73575;SDS011;61859;49.204;8.140;2022-09-09T11:19:55;0.20;;;0.20;;
73575;SDS011;61859;49.204;8.140;2022-09-09T11:22:24;0.00;;;0.00;;
73575;SDS011;61859;49.204;8.140;2022-09-09T11:25:10;0.10;;;0.10;;
73575;SDS011;61859;49.204;8.140;2022-09-09T11:30:30;0.00;;;0.00;;
73575;SDS011;61859;49.204;8.140;2022-09-09T11:38:21;0.03;;;0.03;;
73575;SDS011;61859;49.204;8.140;2022-09-09T11:40:57;0.00;;;0.00;;
73575;SDS011;61859;49.204;8.140;2022-09-09T11:43:29;0.70;;;0.30;;
73575;SDS011;61859;49.204;8.140;2022-09-09T11:45:58;0.03;;;0.03;;
73575;SDS011;61859;49.204;8.140;2022-09-09T11:49:28;0.00;;;0.00;;
73575;SDS011;61859;49.204;8.140;2022-09-09T11:51:27;0.10;;;0.10;;
73575;SDS011;61859;49.204;8.140;2022-09-09T11:53:56;0.00;;;0.00;;
73575;SDS011;61859;49.204;8.140;2022-09-09T11:56:30;0.20;;;0.20;;
73575;SDS011;61859;49.204;8.140;2022-09-09T11:59:25;0.10;;;0.03;;
73575;SDS011;61859;49.204;8.140;2022-09-09T12:02:03;0.10;;;0.10;;
73575;SDS011;61859;49.204;8.140;2022-09-09T12:04:55;0.37;;;0.20;;
73575;SDS011;61859;49.204;8.140;2022-09-09T12:07:47;0.33;;;0.20;;
73575;SDS011;61859;49.204;8.140;2022-09-09T12:12:44;0.30;;;0.20;;
73575;SDS011;61859;49.204;8.140;2022-09-09T12:17:45;0.53;;;0.03;;
73575;SDS011;61859;49.204;8.140;2022-09-09T12:20:14;0.40;;;0.20;;
73575;SDS011;61859;49.204;8.140;2022-09-09T12:23:11;0.30;;;0.13;;
73575;SDS011;61859;49.204;8.140;2022-09-09T12:25:48;0.20;;;0.20;;
73575;SDS011;61859;49.204;8.140;2022-09-09T12:36:52;0.10;;;0.10;;
73575;SDS011;61859;49.204;8.140;2022-09-09T12:41:55;0.03;;;0.00;;
73575;SDS011;61859;49.204;8.140;2022-09-09T12:44:22;0.20;;;0.10;;
73575;SDS011;61859;49.204;8.140;2022-09-09T12:46:49;0.00;;;0.00;;
73575;SDS011;61859;49.204;8.140;2022-09-09T12:52:12;0.10;;;0.10;;
73575;SDS011;61859;49.204;8.140;2022-09-09T12:54:49;0.00;;;0.00;;
73575;SDS011;61859;49.204;8.140;2022-09-09T12:57:18;0.00;;;0.00;;
73575;SDS011;61859;49.204;8.140;2022-09-09T12:59:46;0.00;;;0.00;;
73575;SDS011;61859;49.204;8.140;2022-09-09T13:02:20;0.00;;;0.00;;
73575;SDS011;61859;49.204;8.140;2022-09-09T13:04:48;0.00;;;0.00;;
73575;SDS011;61859;49.204;8.140;2022-09-09T13:07:15;0.97;;;0.10;;
73575;SDS011;61859;49.204;8.140;2022-09-09T13:09:41;0.00;;;0.00;;
73575;SDS011;61859;49.204;8.140;2022-09-09T13:12:13;0.60;;;0.10;;
73575;SDS011;61859;49.204;8.140;2022-09-09T13:14:44;0.00;;;0.00;;
73575;SDS011;61859;49.204;8.140;2022-09-09T13:17:23;0.00;;;0.00;;
73575;SDS011;61859;49.204;8.140;2022-09-09T13:19:50;0.00;;;0.00;;
73575;SDS011;61859;49.204;8.140;2022-09-09T13:25:05;0.00;;;0.00;;
73575;SDS011;61859;49.204;8.140;2022-09-09T13:27:35;0.00;;;0.00;;
73575;SDS011;61859;49.204;8.140;2022-09-09T13:33:01;0.00;;;0.00;;
73575;SDS011;61859;49.204;8.140;2022-09-09T13:35:28;0.00;;;0.00;;
73575;SDS011;61859;49.204;8.140;2022-09-09T13:37:55;0.00;;;0.00;;
73575;SDS011;61859;49.204;8.140;2022-09-09T13:40:22;0.52;;;0.10;;
73575;SDS011;61859;49.204;8.140;2022-09-09T13:42:51;0.00;;;0.00;;
73575;SDS011;61859;49.204;8.140;2022-09-09T13:45:21;0.15;;;0.05;;
73575;SDS011;61859;49.204;8.140;2022-09-09T13:47:51;0.00;;;0.00;;
73575;SDS011;61859;49.204;8.140;2022-09-09T13:50:24;0.25;;;0.20;;
73575;SDS011;61859;49.204;8.140;2022-09-09T13:52:53;0.00;;;0.00;;
73575;SDS011;61859;49.204;8.140;2022-09-09T13:55:20;0.07;;;0.00;;
73575;SDS011;61859;49.204;8.140;2022-09-09T13:57:52;0.00;;;0.00;;
73575;SDS011;61859;49.204;8.140;2022-09-09T14:00:22;0.23;;;0.10;;
73575;SDS011;61859;49.204;8.140;2022-09-09T14:02:51;0.10;;;0.10;;
73575;SDS011;61859;49.204;8.140;2022-09-09T14:05:19;0.00;;;0.00;;
73575;SDS011;61859;49.204;8.140;2022-09-09T14:07:47;0.07;;;0.03;;
73575;SDS011;61859;49.204;8.140;2022-09-09T14:10:13;0.00;;;0.00;;
73575;SDS011;61859;49.204;8.140;2022-09-09T14:12:39;0.37;;;0.10;;
73575;SDS011;61859;49.204;8.140;2022-09-09T14:15:05;0.63;;;0.10;;
73575;SDS011;61859;49.204;8.140;2022-09-09T14:17:32;0.17;;;0.17;;
73575;SDS011;61859;49.204;8.140;2022-09-09T14:19:58;0.53;;;0.20;;
73575;SDS011;61859;49.204;8.140;2022-09-09T14:22:23;0.20;;;0.10;;
73575;SDS011;61859;49.204;8.140;2022-09-09T14:24:50;0.07;;;0.07;;
73575;SDS011;61859;49.204;8.140;2022-09-09T14:27:16;0.17;;;0.17;;
73575;SDS011;61859;49.204;8.140;2022-09-09T14:29:41;0.27;;;0.27;;
73575;SDS011;61859;49.204;8.140;2022-09-09T14:32:09;0.10;;;0.00;;
73575;SDS011;61859;49.204;8.140;2022-09-09T14:34:35;0.00;;;0.00;;
73575;SDS011;61859;49.204;8.140;2022-09-09T14:37:00;0.37;;;0.20;;
73575;SDS011;61859;49.204;8.140;2022-09-09T14:39:26;0.27;;;0.13;;
73575;SDS011;61859;49.204;8.140;2022-09-09T14:41:51;0.00;;;0.00;;
73575;SDS011;61859;49.204;8.140;2022-09-09T14:44:17;0.93;;;0.10;;
73575;SDS011;61859;49.204;8.140;2022-09-09T14:46:43;0.00;;;0.00;;
73575;SDS011;61859;49.204;8.140;2022-09-09T14:49:08;0.00;;;0.00;;
73575;SDS011;61859;49.204;8.140;2022-09-09T14:51:35;0.10;;;0.00;;
73575;SDS011;61859;49.204;8.140;2022-09-09T14:54:01;0.00;;;0.00;;
73575;SDS011;61859;49.204;8.140;2022-09-09T14:56:28;0.00;;;0.00;;
73575;SDS011;61859;49.204;8.140;2022-09-09T14:58:56;0.00;;;0.00;;
73575;SDS011;61859;49.204;8.140;2022-09-09T15:01:23;0.10;;;0.10;;
73575;SDS011;61859;49.204;8.140;2022-09-09T15:03:58;0.00;;;0.00;;
73575;SDS011;61859;49.204;8.140;2022-09-09T15:06:29;0.13;;;0.10;;
73575;SDS011;61859;49.204;8.140;2022-09-09T15:08:58;0.00;;;0.00;;
73575;SDS011;61859;49.204;8.140;2022-09-09T15:11:25;0.00;;;0.00;;
73575;SDS011;61859;49.204;8.140;2022-09-09T15:13:52;0.17;;;0.00;;
73575;SDS011;61859;49.204;8.140;2022-09-09T15:16:19;0.00;;;0.00;;
73575;SDS011;61859;49.204;8.140;2022-09-09T15:18:46;0.00;;;0.00;;
73575;SDS011;61859;49.204;8.140;2022-09-09T15:21:17;0.00;;;0.00;;
73575;SDS011;61859;49.204;8.140;2022-09-09T15:23:44;0.00;;;0.00;;
73575;SDS011;61859;49.204;8.140;2022-09-09T15:26:10;0.00;;;0.00;;
73575;SDS011;61859;49.204;8.140;2022-09-09T15:28:39;0.28;;;0.00;;
73575;SDS011;61859;49.204;8.140;2022-09-09T15:31:12;0.00;;;0.00;;
73575;SDS011;61859;49.204;8.140;2022-09-09T15:33:39;0.00;;;0.00;;
73575;SDS011;61859;49.204;8.140;2022-09-09T15:36:39;0.25;;;0.10;;
73575;SDS011;61859;49.204;8.140;2022-09-09T15:38:59;0.00;;;0.00;;
73575;SDS011;61859;49.204;8.140;2022-09-09T15:41:25;0.00;;;0.00;;
73575;SDS011;61859;49.204;8.140;2022-09-09T15:43:52;0.00;;;0.00;;
73575;SDS011;61859;49.204;8.140;2022-09-09T15:46:22;0.05;;;0.00;;
73575;SDS011;61859;49.204;8.140;2022-09-09T15:48:51;0.00;;;0.00;;
73575;SDS011;61859;49.204;8.140;2022-09-09T15:51:17;0.00;;;0.00;;
73575;SDS011;61859;49.204;8.140;2022-09-09T15:53:43;0.00;;;0.00;;
73575;SDS011;61859;49.204;8.140;2022-09-09T15:56:10;0.10;;;0.00;;
73575;SDS011;61859;49.204;8.140;2022-09-09T15:58:36;0.00;;;0.00;;
73575;SDS011;61859;49.204;8.140;2022-09-09T16:01:05;0.17;;;0.17;;
73575;SDS011;61859;49.204;8.140;2022-09-09T16:03:35;1.70;;;0.13;;
73575;SDS011;61859;49.204;8.140;2022-09-09T16:06:02;0.10;;;0.10;;
73575;SDS011;61859;49.204;8.140;2022-09-09T16:08:33;0.03;;;0.03;;
73575;SDS011;61859;49.204;8.140;2022-09-09T16:11:09;0.20;;;0.10;;
73575;SDS011;61859;49.204;8.140;2022-09-09T16:13:37;0.00;;;0.00;;
73575;SDS011;61859;49.204;8.140;2022-09-09T16:16:04;0.10;;;0.10;;
73575;SDS011;61859;49.204;8.140;2022-09-09T16:18:34;0.10;;;0.00;;
73575;SDS011;61859;49.204;8.140;2022-09-09T16:21:05;0.23;;;0.10;;
73575;SDS011;61859;49.204;8.140;2022-09-09T16:23:31;0.00;;;0.00;;
73575;SDS011;61859;49.204;8.140;2022-09-09T16:25:57;0.00;;;0.00;;
73575;SDS011;61859;49.204;8.140;2022-09-09T16:28:23;0.00;;;0.00;;
73575;SDS011;61859;49.204;8.140;2022-09-09T16:30:49;0.00;;;0.00;;
73575;SDS011;61859;49.204;8.140;2022-09-09T16:33:14;0.10;;;0.10;;
73575;SDS011;61859;49.204;8.140;2022-09-09T16:35:40;1.70;;;0.10;;
73575;SDS011;61859;49.204;8.140;2022-09-09T16:38:06;0.20;;;0.10;;
73575;SDS011;61859;49.204;8.140;2022-09-09T16:40:35;1.60;;;0.10;;
73575;SDS011;61859;49.204;8.140;2022-09-09T16:43:01;0.40;;;0.00;;
73575;SDS011;61859;49.204;8.140;2022-09-09T16:45:27;0.20;;;0.20;;
73575;SDS011;61859;49.204;8.140;2022-09-09T16:47:53;0.00;;;0.00;;
73575;SDS011;61859;49.204;8.140;2022-09-09T16:50:18;0.00;;;0.00;;
73575;SDS011;61859;49.204;8.140;2022-09-09T16:52:44;0.00;;;0.00;;
73575;SDS011;61859;49.204;8.140;2022-09-09T16:55:10;0.00;;;0.00;;
73575;SDS011;61859;49.204;8.140;2022-09-09T16:57:35;0.10;;;0.10;;
73575;SDS011;61859;49.204;8.140;2022-09-09T17:00:02;0.03;;;0.03;;
73575;SDS011;61859;49.204;8.140;2022-09-09T17:02:30;0.00;;;0.00;;
73575;SDS011;61859;49.204;8.140;2022-09-09T17:04:56;0.00;;;0.00;;